Time;durP1;ratioP1;P1;durP2;ratioP2;P2;SDS_P1;SDS_P2;PMS_P1;PMS_P2;Temp;Humidity;BMP_temperature;BMP_pressure;BME280_temperature;BME280_humidity;BME280_pressure;Samples;Min_cycle;Max_cycle;Signal;HPM_P1;HPM_P2
2022/04/09 00:01:48;;;;;;;;;10.75;7.50;;;;;6.35;76.77;100790.28;5072864;27;45219;-67
2022/04/09 00:04:14;;;;;;;;;10.50;7.75;;;;;6.36;76.28;100794.59;5070085;28;46193;-66
2022/04/09 00:06:39;;;;;;;;;5.00;3.00;;;;;6.40;76.00;100798.81;5069420;27;45231;-66
2022/04/09 00:09:05;;;;;;;;;9.00;9.00;;;;;6.43;76.88;100804.75;5068345;27;45217;-66
2022/04/09 00:11:30;;;;;;;;;12.50;9.00;;;;;6.44;76.38;100800.38;5071258;27;45517;-68
2022/04/09 00:13:56;;;;;;;;;9.25;9.00;;;;;6.46;76.35;100806.38;5072226;28;45439;-64
2022/04/09 00:16:21;;;;;;;;;6.75;5.75;;;;;6.44;76.49;100798.59;5069481;27;45341;-66
2022/04/09 00:18:47;;;;;;;;;9.25;7.50;;;;;6.47;75.65;100795.00;5070216;28;45302;-76
2022/04/09 00:21:12;;;;;;;;;8.00;6.50;;;;;6.49;76.27;100803.66;5071963;28;45634;-72
2022/04/09 00:23:37;;;;;;;;;10.25;6.25;;;;;6.52;75.59;100813.16;5071732;28;46174;-76
2022/04/09 00:26:03;;;;;;;;;8.00;6.00;;;;;6.53;75.90;100812.22;5070780;27;45311;-76
2022/04/09 00:28:29;;;;;;;;;9.25;8.00;;;;;6.52;75.64;100816.63;5067102;28;45305;-70
2022/04/09 00:30:54;;;;;;;;;7.00;6.00;;;;;6.50;75.66;100817.59;5070009;27;45590;-66
2022/04/09 00:33:20;;;;;;;;;5.00;5.00;;;;;6.49;75.95;100819.38;5066269;28;46095;-71
2022/04/09 00:35:45;;;;;;;;;6.25;5.75;;;;;6.50;75.34;100830.69;5069366;28;45304;-79
2022/04/09 00:38:11;;;;;;;;;7.00;6.75;;;;;6.51;75.88;100830.63;5067365;27;45295;-77
2022/04/09 00:40:36;;;;;;;;;6.75;5.75;;;;;6.52;75.29;100827.09;5068182;27;45562;-68
2022/04/09 00:43:02;;;;;;;;;8.00;6.25;;;;;6.56;76.09;100827.81;5066606;28;46006;-67
2022/04/09 00:45:27;;;;;;;;;5.50;5.50;;;;;6.56;75.69;100833.91;5068929;27;45433;-69
2022/04/09 00:47:53;;;;;;;;;5.75;3.00;;;;;6.60;75.52;100832.84;5067878;27;45224;-75
2022/04/09 00:50:19;;;;;;;;;6.25;5.00;;;;;6.61;76.38;100838.94;5068418;28;45521;-65
2022/04/09 00:52:50;;;;;;;;;7.00;4.00;;;;;6.65;75.29;100843.16;5065654;27;45985;-67
2022/04/09 00:56:13;;;;;;;;;5.50;5.00;;;;;6.66;75.98;100840.44;5073971;28;45457;-74
2022/04/09 00:58:15;;;;;;;;;7.00;5.00;;;;;6.66;75.16;100843.06;5066472;27;45276;-64
2022/04/09 01:00:42;;;;;;;;;6.75;5.50;;;;;6.67;75.03;100844.78;5069487;27;45439;-69
2022/04/09 01:03:18;;;;;;;;;6.00;3.00;;;;;6.69;75.27;100847.31;5072433;27;45500;-69
2022/04/09 01:05:44;;;;;;;;;5.75;3.00;;;;;6.67;74.62;100843.91;5065410;28;45306;-66
2022/04/09 01:08:10;;;;;;;;;4.75;2.00;;;;;6.70;75.18;100849.00;5067963;27;45409;-64
2022/04/09 01:10:39;;;;;;;;;3.50;3.50;;;;;6.71;75.09;100848.97;5068101;28;45563;-65
2022/04/09 01:13:05;;;;;;;;;5.25;4.50;;;;;6.73;75.30;100846.28;5070823;27;45509;-70
2022/04/09 01:15:31;;;;;;;;;6.50;2.75;;;;;6.76;74.91;100850.53;5068854;28;45410;-63
2022/04/09 01:17:57;;;;;;;;;4.50;2.00;;;;;6.76;75.93;100846.16;5070219;28;45359;-65
2022/04/09 01:20:26;;;;;;;;;3.00;3.00;;;;;6.77;74.96;100850.47;5075482;28;45399;-66
2022/04/09 01:22:52;;;;;;;;;10.00;5.00;;;;;6.75;75.04;100854.94;5066061;27;46287;-66
2022/04/09 01:25:18;;;;;;;;;6.50;6.00;;;;;6.76;75.65;100861.88;5072910;27;45398;-65
2022/04/09 01:27:46;;;;;;;;;3.00;3.00;;;;;6.75;75.08;100870.63;5075199;28;45343;-70
2022/04/09 01:30:12;;;;;;;;;3.50;3.50;;;;;6.74;74.69;100878.56;5075263;27;45259;-68
2022/04/09 01:32:37;;;;;;;;;4.50;4.00;;;;;6.72;75.40;100882.09;5075137;28;45356;-68
2022/04/09 01:35:04;;;;;;;;;2.75;2.75;;;;;6.72;75.53;100886.47;5073049;27;45409;-65
2022/04/09 01:37:30;;;;;;;;;6.00;2.75;;;;;6.70;75.71;100902.22;5075597;28;46399;-67
2022/04/09 01:39:55;;;;;;;;;5.75;3.00;;;;;6.69;75.13;100907.53;5073090;28;45762;-67
2022/04/09 01:42:21;;;;;;;;;6.75;5.00;;;;;6.67;75.50;100917.22;5073404;28;46038;-68
2022/04/09 01:44:48;;;;;;;;;2.00;2.00;;;;;6.67;75.45;100910.22;5073731;28;45444;-67
2022/04/09 01:47:13;;;;;;;;;3.75;1.75;;;;;6.68;75.16;100913.69;5062531;28;45248;-68
2022/04/09 01:49:39;;;;;;;;;2.00;2.00;;;;;6.68;74.82;100916.28;5063832;28;45250;-68
2022/04/09 01:52:05;;;;;;;;;6.00;2.25;;;;;6.70;75.30;100909.22;5063831;28;46038;-67
2022/04/09 01:54:30;;;;;;;;;3.00;3.00;;;;;6.71;74.54;100910.94;5063855;28;45279;-67
2022/04/09 01:56:55;;;;;;;;;2.50;2.50;;;;;6.69;74.24;100913.59;5064222;28;45335;-67
2022/04/09 01:59:21;;;;;;;;;7.00;3.00;;;;;6.70;74.13;100911.84;5063713;28;45421;-67
2022/04/09 02:01:48;;;;;;;;;5.00;3.00;;;;;6.67;75.00;100909.38;5063533;28;45687;-67
2022/04/09 02:04:15;;;;;;;;;3.75;3.75;;;;;6.62;74.80;100924.38;5080478;27;45444;-67
2022/04/09 02:06:42;;;;;;;;;2.00;2.00;;;;;6.60;75.34;100921.00;5079667;28;45376;-67
2022/04/09 02:09:11;;;;;;;;;5.25;3.00;;;;;6.57;75.15;100929.81;5081493;27;45218;-67
2022/04/09 02:11:39;;;;;;;;;6.00;5.50;;;;;6.55;75.62;100926.38;5087293;27;46424;-67
2022/04/09 02:14:07;;;;;;;;;3.00;3.00;;;;;6.57;75.74;100914.13;5077560;28;45297;-68
2022/04/09 02:16:33;;;;;;;;;5.50;3.00;;;;;6.61;75.01;100918.31;5078553;27;45363;-68
2022/04/09 02:18:59;;;;;;;;;6.25;4.00;;;;;6.67;75.01;100911.97;5064326;28;45557;-68
2022/04/09 02:21:25;;;;;;;;;5.75;2.75;;;;;6.68;75.36;100911.91;5076345;28;45173;-65
2022/04/09 02:23:50;;;;;;;;;5.25;3.50;;;;;6.70;75.04;100907.47;5078612;28;45440;-67
2022/04/09 02:26:16;;;;;;;;;5.00;3.00;;;;;6.76;75.64;100905.50;5063701;28;45276;-68
2022/04/09 02:28:42;;;;;;;;;5.25;4.50;;;;;6.80;75.86;100901.88;5063258;28;45408;-67
2022/04/09 02:31:07;;;;;;;;;6.50;5.50;;;;;6.81;75.63;100904.41;5077314;28;46794;-68
2022/04/09 02:33:33;;;;;;;;;5.00;3.00;;;;;6.83;75.72;100915.69;5062968;28;45371;-68
2022/04/09 02:35:58;;;;;;;;;5.00;2.75;;;;;6.82;75.10;100910.50;5062030;28;45703;-68
2022/04/09 02:38:24;;;;;;;;;5.50;5.50;;;;;6.82;75.10;100918.38;5063199;28;45538;-68
2022/04/09 02:40:50;;;;;;;;;2.00;2.00;;;;;6.81;75.28;100929.75;5070873;28;46143;-68
2022/04/09 02:43:16;;;;;;;;;6.25;3.00;;;;;6.81;74.90;100942.84;5062935;28;45154;-68
2022/04/09 02:45:41;;;;;;;;;3.00;2.75;;;;;6.79;74.68;100947.28;5062823;28;45419;-68
2022/04/09 02:48:07;;;;;;;;;3.50;3.00;;;;;6.78;74.65;100949.03;5063227;28;45232;-68
2022/04/09 02:50:33;;;;;;;;;6.50;2.00;;;;;6.80;74.79;100949.00;5062467;28;45339;-68
2022/04/09 02:52:58;;;;;;;;;4.50;4.00;;;;;6.79;74.84;100955.97;5062802;28;45354;-68
2022/04/09 02:55:24;;;;;;;;;4.00;3.00;;;;;6.77;75.16;100957.81;5063114;28;45485;-69
2022/04/09 02:57:50;;;;;;;;;5.00;5.00;;;;;6.77;75.56;100952.56;5062947;28;45235;-68
2022/04/09 03:00:16;;;;;;;;;6.00;5.00;;;;;6.79;75.17;100952.50;5062612;28;45386;-68
2022/04/09 03:02:43;;;;;;;;;5.75;4.50;;;;;6.79;75.66;100955.13;5062638;28;45424;-68
2022/04/09 03:05:10;;;;;;;;;8.25;4.00;;;;;6.79;75.43;100947.28;5063038;28;45416;-68
2022/04/09 03:07:35;;;;;;;;;4.00;4.00;;;;;6.81;76.00;100962.03;5062647;28;45518;-68
2022/04/09 03:10:02;;;;;;;;;6.75;5.25;;;;;6.83;75.89;100968.03;5062585;28;45561;-68
2022/04/09 03:12:28;;;;;;;;;6.50;4.50;;;;;6.82;75.44;100983.81;5065902;28;45467;-67
2022/04/09 03:14:53;;;;;;;;;7.25;7.00;;;;;6.78;75.63;100987.47;5083070;28;45231;-68
2022/04/09 03:17:19;;;;;;;;;6.75;6.75;;;;;6.76;75.64;100984.91;5065138;27;45556;-68
2022/04/09 03:19:44;;;;;;;;;6.25;6.00;;;;;6.77;75.65;100984.00;5062467;28;46051;-68
2022/04/09 03:22:10;;;;;;;;;10.00;6.75;;;;;6.79;76.15;100981.31;5062278;28;45303;-67
2022/04/09 03:24:35;;;;;;;;;14.00;10.25;;;;;6.79;76.25;100971.69;5062547;28;45395;-67
2022/04/09 03:27:01;;;;;;;;;15.00;9.00;;;;;6.79;76.16;100986.53;5063850;28;45468;-68
2022/04/09 03:29:26;;;;;;;;;14.75;11.00;;;;;6.79;75.77;100995.25;5063585;28;45829;-68
2022/04/09 03:31:52;;;;;;;;;10.50;10.00;;;;;6.78;76.09;100993.53;5061664;28;45403;-68
2022/04/09 03:34:18;;;;;;;;;10.50;10.25;;;;;6.80;75.91;100998.75;5062665;28;45384;-68
2022/04/09 03:36:43;;;;;;;;;11.25;11.00;;;;;6.80;76.51;100998.75;5062182;28;45484;-68
2022/04/09 03:39:09;;;;;;;;;14.00;14.00;;;;;6.80;76.12;101012.69;5061392;28;47592;-68
2022/04/09 03:41:35;;;;;;;;;13.75;11.25;;;;;6.79;76.22;101012.72;5061709;28;45354;-68
2022/04/09 03:44:00;;;;;;;;;14.00;11.00;;;;;6.78;76.19;101013.63;5062324;28;45382;-68
2022/04/09 03:46:26;;;;;;;;;14.50;12.00;;;;;6.75;76.11;101019.00;5061672;28;45185;-68
2022/04/09 03:48:51;;;;;;;;;14.25;12.00;;;;;6.70;76.29;101021.78;5062095;28;45229;-68
2022/04/09 03:51:17;;;;;;;;;12.75;11.25;;;;;6.71;77.03;101023.50;5061613;28;45211;-68
2022/04/09 03:53:42;;;;;;;;;11.50;10.25;;;;;6.72;76.50;101020.00;5062202;28;45325;-68
2022/04/09 03:56:08;;;;;;;;;10.00;9.50;;;;;6.77;76.54;101014.56;5061938;28;45478;-68
2022/04/09 03:58:36;;;;;;;;;10.50;9.00;;;;;6.80;76.28;101020.53;5061067;28;45590;-68
2022/04/09 04:01:02;;;;;;;;;12.00;11.00;;;;;6.83;76.35;101024.78;5060517;28;45429;-68
2022/04/09 04:03:28;;;;;;;;;8.50;7.75;;;;;6.83;76.33;101027.41;5061984;28;45357;-68
2022/04/09 04:05:54;;;;;;;;;9.25;9.00;;;;;6.78;75.78;101019.72;5061815;28;45456;-68
2022/04/09 04:08:19;;;;;;;;;10.50;9.50;;;;;6.74;76.25;101033.00;5061741;28;45362;-68
2022/04/09 04:10:44;;;;;;;;;9.00;7.25;;;;;6.72;75.65;101033.94;5061607;28;45304;-68
2022/04/09 04:13:11;;;;;;;;;16.75;11.00;;;;;6.71;75.61;101026.09;5070599;28;45494;-68
2022/04/09 04:15:36;;;;;;;;;12.25;9.25;;;;;6.70;76.02;101029.63;5078611;28;45317;-68
2022/04/09 04:18:03;;;;;;;;;12.25;11.00;;;;;6.70;75.99;101027.03;5061408;28;45336;-68
2022/04/09 04:20:28;;;;;;;;;9.00;9.00;;;;;6.74;76.13;101017.31;5061310;28;45376;-68
2022/04/09 04:22:54;;;;;;;;;14.00;10.00;;;;;6.78;76.05;101014.50;5061564;28;45248;-68
2022/04/09 04:25:20;;;;;;;;;9.00;9.00;;;;;6.81;75.72;101022.25;5061417;28;45247;-68
2022/04/09 04:27:49;;;;;;;;;11.25;10.00;;;;;6.80;75.46;101025.78;5061328;28;45383;-68
2022/04/09 04:30:15;;;;;;;;;10.00;9.75;;;;;6.77;75.35;101031.13;5061068;28;45263;-68
2022/04/09 04:32:42;;;;;;;;;11.25;11.00;;;;;6.78;75.98;101018.88;5061284;28;45298;-68
2022/04/09 04:35:08;;;;;;;;;13.25;10.50;;;;;6.81;76.03;101022.25;5061362;28;45435;-68
2022/04/09 04:37:42;;;;;;;;;14.75;13.75;;;;;6.82;75.36;101033.56;5061109;28;45261;-68
2022/04/09 04:40:08;;;;;;;;;16.75;12.25;;;;;6.79;75.54;101042.38;5068570;28;45464;-68
2022/04/09 04:42:34;;;;;;;;;14.50;14.00;;;;;6.75;75.96;101032.94;5059986;28;45347;-68
2022/04/09 04:44:59;;;;;;;;;13.50;13.50;;;;;6.78;76.15;101030.19;5059167;28;45331;-68
2022/04/09 04:47:25;;;;;;;;;15.25;12.50;;;;;6.80;75.30;101036.25;5060503;28;45370;-68
2022/04/09 04:49:51;;;;;;;;;14.00;12.75;;;;;6.82;75.38;101029.19;5059691;28;45655;-68
2022/04/09 04:52:16;;;;;;;;;11.25;10.50;;;;;6.81;76.02;101030.09;5060033;28;45363;-68
2022/04/09 04:54:41;;;;;;;;;13.75;13.75;;;;;6.82;75.79;101030.94;5059834;28;45378;-68
2022/04/09 04:57:07;;;;;;;;;19.50;13.00;;;;;6.76;75.50;101039.03;5060305;28;45856;-68
2022/04/09 04:59:32;;;;;;;;;13.50;12.25;;;;;6.72;75.10;101047.03;5060665;28;45296;-68
2022/04/09 05:01:58;;;;;;;;;18.50;13.25;;;;;6.70;75.92;101055.81;5060832;28;45464;-68
2022/04/09 05:04:25;;;;;;;;;10.50;10.00;;;;;6.69;75.90;101051.50;5060908;28;45256;-68
2022/04/09 05:06:51;;;;;;;;;;;;;;;6.71;75.79;101052.28;5063379;28;45348;-68
2022/04/09 05:09:16;;;;;;;;;19.50;14.25;;;;;6.72;76.17;101056.63;5060738;28;45257;-68
2022/04/09 05:11:42;;;;;;;;;18.75;14.50;;;;;6.72;76.09;101061.88;5061037;28;45235;-68
2022/04/09 05:14:07;;;;;;;;;10.75;10.50;;;;;6.72;75.67;101061.88;5078324;28;45309;-68
2022/04/09 05:16:33;;;;;;;;;16.75;15.50;;;;;6.75;75.91;101058.28;5070191;27;45856;-68
2022/04/09 05:18:58;;;;;;;;;23.25;16.25;;;;;6.80;75.84;101064.19;5060727;28;45215;-68
2022/04/09 05:21:25;;;;;;;;;17.00;15.75;;;;;6.84;76.05;101063.16;5060854;28;45452;-68
2022/04/09 05:23:51;;;;;;;;;16.25;15.75;;;;;6.89;76.45;101053.38;5060704;28;45423;-68
2022/04/09 05:26:16;;;;;;;;;19.75;16.00;;;;;6.92;76.14;101061.09;5060689;28;45668;-68
2022/04/09 05:28:42;;;;;;;;;17.75;17.00;;;;;6.94;76.10;101054.88;5060979;28;45388;-68
2022/04/09 05:31:09;;;;;;;;;23.00;18.75;;;;;6.93;75.98;101058.41;5062003;28;45437;-68
2022/04/09 05:33:34;;;;;;;;;24.50;19.00;;;;;6.90;76.09;101063.78;5061178;28;45264;-68
2022/04/09 05:36:02;;;;;;;;;22.25;19.00;;;;;6.87;76.73;101066.53;5060633;28;45343;-69
2022/04/09 05:38:27;;;;;;;;;19.00;16.25;;;;;6.88;76.35;101073.47;5060266;28;45247;-68
2022/04/09 05:40:53;;;;;;;;;21.00;15.25;;;;;6.88;76.53;101073.47;5060755;28;45199;-68
2022/04/09 05:43:18;;;;;;;;;21.50;18.00;;;;;6.88;76.21;101077.84;5060537;28;45648;-68
2022/04/09 05:45:44;;;;;;;;;23.00;18.75;;;;;6.90;76.29;101078.63;5069208;28;46777;-68
2022/04/09 05:48:09;;;;;;;;;24.00;19.25;;;;;6.91;76.25;101090.81;5063237;28;45224;-68
2022/04/09 05:50:35;;;;;;;;;21.25;19.00;;;;;6.91;76.54;101096.06;5060491;28;45178;-68
2022/04/09 05:53:01;;;;;;;;;21.50;20.00;;;;;6.90;76.49;101091.72;5060353;28;45312;-68
2022/04/09 05:55:26;;;;;;;;;29.50;24.00;;;;;6.90;75.92;101097.81;5060182;28;46013;-68
2022/04/09 05:57:52;;;;;;;;;23.00;16.75;;;;;6.91;76.03;101088.19;5060179;28;45401;-68
2022/04/09 06:00:18;;;;;;;;;23.25;20.25;;;;;6.92;75.77;101095.13;5060337;28;45325;-68
2022/04/09 06:02:44;;;;;;;;;17.75;16.25;;;;;6.94;75.62;101096.78;5075946;28;45541;-68
2022/04/09 06:05:10;;;;;;;;;24.00;23.75;;;;;6.96;76.15;101084.50;5061709;28;45893;-68
2022/04/09 06:07:35;;;;;;;;;22.25;18.50;;;;;7.03;76.23;101102.56;5062129;28;45419;-68
2022/04/09 06:10:03;;;;;;;;;23.75;19.25;;;;;7.04;76.64;101099.06;5061898;27;45303;-68
2022/04/09 06:12:29;;;;;;;;;24.25;19.25;;;;;7.08;76.26;101098.88;5070719;28;45457;-67
2022/04/09 06:14:55;;;;;;;;;21.25;15.75;;;;;7.13;76.30;101098.69;5063291;28;45598;-66
2022/04/09 06:17:21;;;;;;;;;1.00;0.75;;;;;7.14;76.37;101111.72;5070841;28;45169;-69
2022/04/09 06:19:47;;;;;;;;;32.00;30.25;;;;;7.13;76.53;101112.66;5063187;28;45335;-66
2022/04/09 06:22:12;;;;;;;;;19.25;18.25;;;;;7.16;75.87;101116.91;5076111;28;45314;-65
2022/04/09 06:24:38;;;;;;;;;20.50;19.50;;;;;7.18;75.62;101120.31;5069548;28;45358;-65
2022/04/09 06:27:04;;;;;;;;;22.25;22.00;;;;;7.24;76.03;101120.06;5069473;28;45244;-65
2022/04/09 06:29:29;;;;;;;;;22.50;21.25;;;;;7.26;76.12;101131.34;5072591;28;45561;-66
2022/04/09 06:31:55;;;;;;;;;21.50;19.75;;;;;7.24;75.63;101126.16;5068451;28;45703;-65
2022/04/09 06:34:20;;;;;;;;;22.50;17.75;;;;;7.24;75.71;101138.41;5074882;27;45996;-65
2022/04/09 06:36:46;;;;;;;;;13.75;13.75;;;;;7.29;76.35;101139.09;5068577;28;45307;-65
2022/04/09 06:39:11;;;;;;;;;25.50;20.75;;;;;7.28;75.63;101151.34;5076200;27;45436;-65
2022/04/09 06:41:37;;;;;;;;;23.75;21.75;;;;;7.25;75.67;101146.22;5073870;27;45326;-65
2022/04/09 06:44:04;;;;;;;;;21.75;16.50;;;;;7.25;75.79;101150.59;5062740;28;45905;-66
2022/04/09 06:46:29;;;;;;;;;19.25;14.75;;;;;7.22;75.99;101158.59;5071885;28;45427;-66
2022/04/09 06:48:55;;;;;;;;;20.50;19.50;;;;;7.21;75.70;101157.75;5070721;28;45373;-67
2022/04/09 06:51:22;;;;;;;;;24.50;18.75;;;;;7.22;76.21;101156.81;5075946;27;45522;-66
2022/04/09 06:53:48;;;;;;;;;22.25;20.00;;;;;7.23;76.12;101163.78;5068979;28;45468;-66
2022/04/09 06:56:14;;;;;;;;;21.25;18.75;;;;;7.25;76.16;101163.72;5065128;28;45317;-66
2022/04/09 06:58:40;;;;;;;;;22.25;18.00;;;;;7.28;76.07;101163.59;5076120;28;45376;-66
2022/04/09 07:01:05;;;;;;;;;22.25;20.25;;;;;7.30;76.22;101164.38;5075924;28;45336;-65
2022/04/09 07:03:31;;;;;;;;;25.75;23.00;;;;;7.33;76.23;101164.25;5070034;28;45333;-65
2022/04/09 07:05:56;;;;;;;;;23.50;21.00;;;;;7.32;76.13;101173.03;5076184;28;45367;-65
2022/04/09 07:08:22;;;;;;;;;26.25;23.75;;;;;7.32;76.18;101178.28;5070226;28;45354;-65
2022/04/09 07:10:47;;;;;;;;;21.50;18.50;;;;;7.34;76.12;101180.84;5077654;27;45480;-65
2022/04/09 07:13:13;;;;;;;;;24.50;21.25;;;;;7.37;76.41;101180.72;5075598;27;46027;-65
2022/04/09 07:15:38;;;;;;;;;19.25;18.00;;;;;7.42;76.71;101182.25;5077898;27;45395;-66
2022/04/09 07:18:04;;;;;;;;;17.25;14.25;;;;;7.50;76.75;101189.81;5073998;28;45309;-66
2022/04/09 07:20:30;;;;;;;;;22.75;15.75;;;;;7.53;76.28;101187.09;5075779;28;45504;-66
2022/04/09 07:22:56;;;;;;;;;21.50;18.50;;;;;7.56;76.01;101198.28;5088527;27;46014;-66
2022/04/09 07:25:22;;;;;;;;;17.00;16.25;;;;;7.55;75.78;101196.59;5071280;27;45401;-66
2022/04/09 07:27:48;;;;;;;;;13.75;8.75;;;;;7.54;75.32;101194.03;5076966;28;45414;-67
2022/04/09 07:30:16;;;;;;;;;13.00;10.00;;;;;7.53;75.45;101195.81;5074686;28;45370;-66
2022/04/09 07:32:43;;;;;;;;;18.50;13.25;;;;;7.57;75.38;101193.91;5071532;28;46099;-66
2022/04/09 07:35:09;;;;;;;;;12.75;10.75;;;;;7.57;75.47;101200.00;5065720;28;46465;-66
2022/04/09 07:37:41;;;;;;;;;42.00;34.50;;;;;7.64;75.67;101197.97;5074922;27;45242;-68
2022/04/09 07:40:09;;;;;;;;;15.00;10.25;;;;;7.69;75.14;101200.44;5072484;27;45243;-67
2022/04/09 07:42:35;;;;;;;;;16.25;12.50;;;;;7.68;75.36;101206.59;5076447;28;45270;-67
2022/04/09 07:45:00;;;;;;;;;15.00;12.75;;;;;7.69;74.88;101203.91;5068071;28;45367;-68
2022/04/09 07:47:26;;;;;;;;;18.50;16.50;;;;;7.71;75.13;101207.31;5076128;28;45461;-67
2022/04/09 07:49:51;;;;;;;;;12.50;12.50;;;;;7.74;75.16;101209.84;5071139;28;45477;-68
2022/04/09 07:52:16;;;;;;;;;11.75;11.75;;;;;7.80;75.10;101209.56;5061951;27;45940;-69
2022/04/09 07:54:42;;;;;;;;;17.25;15.00;;;;;7.88;75.24;101222.38;5065808;27;45360;-67
2022/04/09 07:57:08;;;;;;;;;14.75;11.75;;;;;8.03;75.13;101220.91;5073094;28;45480;-68
2022/04/09 07:59:33;;;;;;;;;17.75;11.75;;;;;8.16;74.87;101221.25;5067097;27;45364;-68
2022/04/09 08:01:58;;;;;;;;;16.50;16.00;;;;;8.23;74.81;101213.06;5073548;27;46181;-67
2022/04/09 08:04:24;;;;;;;;;12.25;11.50;;;;;8.32;74.08;101219.69;5074852;28;45392;-68
2022/04/09 08:06:49;;;;;;;;;16.00;12.50;;;;;8.37;74.18;101223.00;5077094;27;45457;-68
2022/04/09 08:09:15;;;;;;;;;16.25;11.00;;;;;8.49;73.96;101226.88;5074230;28;45376;-66
2022/04/09 08:11:40;;;;;;;;;16.00;15.25;;;;;8.58;73.79;101229.13;5079156;27;45394;-68
2022/04/09 08:14:06;;;;;;;;;94.67;77.00;;;;;8.67;73.20;101228.72;5080313;27;45418;-67
2022/04/09 08:16:31;;;;;;;;;12.50;11.75;;;;;8.70;72.79;101231.22;5080071;28;45393;-66
2022/04/09 08:18:57;;;;;;;;;14.25;11.25;;;;;8.66;72.76;101227.88;5071688;27;45283;-66
2022/04/09 08:21:23;;;;;;;;;19.00;13.75;;;;;8.68;73.28;101238.28;5065883;28;45435;-66
2022/04/09 08:23:48;;;;;;;;;12.75;12.00;;;;;8.73;73.22;101232.84;5068604;28;45256;-67
2022/04/09 08:26:14;;;;;;;;;13.25;11.00;;;;;8.84;72.72;101236.69;5062633;28;45314;-66
2022/04/09 08:28:40;;;;;;;;;9.25;7.75;;;;;8.94;72.51;101242.44;5075149;27;46085;-66
2022/04/09 08:31:06;;;;;;;;;16.25;13.25;;;;;8.95;72.40;101238.88;5071938;28;45402;-67
2022/04/09 08:33:32;;;;;;;;;12.00;12.00;;;;;8.88;71.67;101246.19;5075764;28;46454;-67
2022/04/09 08:35:58;;;;;;;;;12.75;12.25;;;;;8.77;71.44;101251.06;5072585;28;45378;-67
2022/04/09 08:38:23;;;;;;;;;17.00;14.75;;;;;8.61;71.61;101257.84;5075940;27;45522;-66
2022/04/09 08:40:50;;;;;;;;;12.75;12.50;;;;;8.56;71.97;101265.09;5072776;28;45953;-67
2022/04/09 08:43:15;;;;;;;;;12.75;11.75;;;;;8.49;72.13;101259.25;5070212;28;45276;-74
2022/04/09 08:45:41;;;;;;;;;14.25;10.50;;;;;8.43;72.07;101266.53;5089342;27;44791;-66
2022/04/09 08:48:09;;;;;;;;;12.00;10.25;;;;;8.38;71.87;101271.97;5076393;28;45308;-68
2022/04/09 08:50:35;;;;;;;;;12.00;9.25;;;;;8.39;71.66;101277.16;5070959;28;46149;-68
2022/04/09 08:53:06;;;;;;;;;10.00;8.75;;;;;8.41;71.64;101284.97;5075886;28;45228;-68
2022/04/09 08:55:42;;;;;;;;;11.00;7.00;;;;;8.41;71.76;101281.50;5070918;28;45297;-68
2022/04/09 08:58:07;;;;;;;;;12.50;10.75;;;;;8.46;71.81;101290.91;5075755;28;45259;-68
2022/04/09 09:00:33;;;;;;;;;12.00;11.00;;;;;8.50;72.19;101297.72;5070756;27;46045;-68
2022/04/09 09:03:01;;;;;;;;;46.25;36.25;;;;;8.53;71.88;101292.34;5083423;28;44740;-68
2022/04/09 09:05:43;;;;;;;;;16.50;11.75;;;;;8.52;71.64;101302.91;5070944;27;45509;-75
2022/04/09 09:08:10;;;;;;;;;8.75;7.50;;;;;8.46;71.65;101296.16;5073273;28;46304;-67
2022/04/09 09:10:37;;;;;;;;;11.75;11.00;;;;;8.51;71.76;101293.31;5072492;28;46335;-66
2022/04/09 09:13:05;;;;;;;;;10.00;9.25;;;;;8.57;71.67;101303.56;5079679;27;45337;-67
2022/04/09 09:15:45;;;;;;;;;12.25;11.75;;;;;8.62;71.88;101299.00;5080746;28;45432;-68
2022/04/09 09:18:20;;;;;;;;;9.25;8.00;;;;;8.63;71.30;101296.28;5066931;28;45401;-66
2022/04/09 09:20:54;;;;;;;;;8.50;7.00;;;;;8.65;71.09;101304.09;5080833;27;45336;-65
2022/04/09 09:23:24;;;;;;;;;9.75;9.50;;;;;8.69;71.21;101303.06;5096298;27;45299;-67
2022/04/09 09:25:51;;;;;;;;;11.00;8.25;;;;;8.79;70.91;101308.78;5080767;28;45288;-67
2022/04/09 09:28:33;;;;;;;;;9.50;7.50;;;;;8.90;70.78;101306.53;5080665;27;45498;-67
2022/04/09 09:31:00;;;;;;;;;6.00;5.00;;;;;9.00;70.50;101315.72;5080256;28;45426;-66
2022/04/09 09:33:26;;;;;;;;;11.75;11.00;;;;;9.07;70.25;101322.41;5079768;27;45307;-66
2022/04/09 09:35:54;;;;;;;;;8.25;6.75;;;;;9.15;70.49;101324.69;5071988;27;45270;-66
2022/04/09 09:38:27;;;;;;;;;8.50;8.00;;;;;9.18;70.08;101329.84;5080485;28;45438;-66
2022/04/09 09:40:54;;;;;;;;;9.75;7.25;;;;;9.16;69.90;101329.03;5082623;28;46139;-65
2022/04/09 09:43:22;;;;;;;;;7.50;4.25;;;;;9.21;70.33;101330.53;5083869;27;45536;-66
2022/04/09 09:45:49;;;;;;;;;8.75;7.00;;;;;9.43;70.21;101333.09;5073963;27;45346;-66
2022/04/09 09:48:20;;;;;;;;;8.50;6.75;;;;;9.56;69.95;101337.78;5081052;28;45573;-66
2022/04/09 09:50:47;;;;;;;;;8.00;6.00;;;;;9.59;69.17;101350.81;5077638;27;45470;-66
2022/04/09 09:53:12;;;;;;;;;9.25;6.50;;;;;9.58;69.34;101346.47;5062291;28;45401;-66
2022/04/09 09:55:44;;;;;;;;;8.50;7.50;;;;;9.54;68.68;101355.41;5063668;28;45427;-66
2022/04/09 09:58:15;;;;;;;;;8.00;8.00;;;;;9.41;69.05;101360.38;5064117;28;45354;-66
2022/04/09 10:00:41;;;;;;;;;6.75;5.00;;;;;9.31;69.03;101359.91;5070721;27;46247;-66
2022/04/09 10:03:09;;;;;;;;;5.00;4.50;;;;;9.16;68.79;101366.72;5063367;28;45267;-67
2022/04/09 10:05:38;;;;;;;;;6.00;4.25;;;;;9.07;69.07;101376.75;5063518;28;45256;-67
2022/04/09 10:08:05;;;;;;;;;5.25;5.25;;;;;8.95;69.31;101386.03;5076237;28;45595;-67
2022/04/09 10:10:37;;;;;;;;;8.75;6.50;;;;;8.89;69.33;101392.38;5070723;27;45380;-67
2022/04/09 10:13:06;;;;;;;;;4.00;4.00;;;;;8.82;69.75;101396.16;5082836;27;45371;-67
2022/04/09 10:15:32;;;;;;;;;4.75;4.75;;;;;8.81;68.99;101396.25;5086512;27;45340;-67
2022/04/09 10:18:00;;;;;;;;;6.50;6.50;;;;;8.70;69.30;101398.47;5079644;27;45413;-67
2022/04/09 10:20:27;;;;;;;;;11.00;6.75;;;;;8.67;69.76;101400.28;5064368;27;45242;-67
2022/04/09 10:22:57;;;;;;;;;8.00;7.50;;;;;8.68;69.16;101406.38;5071379;27;45374;-67
2022/04/09 10:25:29;;;;;;;;;7.75;6.00;;;;;8.65;69.29;101399.50;5065389;27;45280;-67
2022/04/09 10:28:04;;;;;;;;;6.25;6.25;;;;;8.77;69.69;101407.78;5062666;28;45392;-67
2022/04/09 10:30:39;;;;;;;;;8.00;6.25;;;;;8.86;69.45;101410.06;5062704;28;45338;-67
2022/04/09 10:33:24;;;;;;;;;6.25;6.25;;;;;8.99;69.29;101410.38;5062795;28;45342;-67
2022/04/09 10:35:50;;;;;;;;;8.75;7.50;;;;;9.10;68.85;101413.44;5063275;28;45330;-67
2022/04/09 10:38:18;;;;;;;;;9.00;6.25;;;;;9.20;68.09;101417.38;5062925;28;45451;-68
2022/04/09 10:40:43;;;;;;;;;10.50;8.50;;;;;9.31;67.81;101412.50;5067488;28;46203;-67
2022/04/09 10:43:39;;;;;;;;;8.75;7.25;;;;;9.46;66.89;101417.09;5062811;28;45218;-68
2022/04/09 10:46:08;;;;;;;;;7.75;7.75;;;;;9.50;66.68;101420.44;5062859;28;45253;-67
2022/04/09 10:48:36;;;;;;;;;10.75;10.75;;;;;9.55;67.25;101417.59;5063250;28;45260;-67
2022/04/09 10:51:08;;;;;;;;;9.75;8.00;;;;;9.69;67.48;101423.97;5061923;28;46040;-67
2022/04/09 10:53:43;;;;;;;;;7.00;7.00;;;;;9.77;67.39;101421.84;5062829;28;45354;-67
2022/04/09 10:56:13;;;;;;;;;7.25;6.50;;;;;9.93;67.39;101429.03;5063015;28;45270;-67
2022/04/09 10:58:57;;;;;;;;;6.75;6.75;;;;;10.13;65.56;101436.03;5063199;28;45414;-67
2022/04/09 11:01:50;;;;;;;;;8.25;8.00;;;;;10.33;65.86;101434.19;5071613;28;46436;-67
2022/04/09 11:04:32;;;;;;;;;8.25;7.00;;;;;10.50;65.83;101427.28;5082681;27;45280;-67
2022/04/09 11:07:00;;;;;;;;;7.00;6.50;;;;;10.59;65.60;101443.53;5082918;28;45313;-67
2022/04/09 11:09:51;;;;;;;;;8.75;7.25;;;;;10.66;65.00;101438.78;5083254;28;45630;-67
2022/04/09 11:12:39;;;;;;;;;8.00;7.00;;;;;10.70;64.80;101448.25;5073753;28;46327;-67
2022/04/09 11:15:09;;;;;;;;;6.75;6.75;;;;;10.73;65.26;101442.81;5082752;28;45402;-67
2022/04/09 11:17:35;;;;;;;;;7.00;7.00;;;;;10.67;64.19;101445.78;5082956;28;45348;-67
2022/04/09 11:20:10;;;;;;;;;9.00;8.00;;;;;10.48;64.48;101443.16;5083046;28;45161;-67
2022/04/09 11:22:38;;;;;;;;;12.25;8.75;;;;;10.31;64.74;101441.31;5081715;28;45465;-67
2022/04/09 11:25:08;;;;;;;;;11.50;10.25;;;;;10.26;64.97;101450.34;5062604;28;45317;-67